sensor_id;sensor_type;location;lat;lon;timestamp;temperature;humidity
38973;DHT22;25333;50.762;4.470;2022-09-09T00:00:18;14.50;99.90
38973;DHT22;25333;50.762;4.470;2022-09-09T00:05:44;14.60;99.90
38973;DHT22;25333;50.762;4.470;2022-09-09T00:08:19;14.60;99.90
38973;DHT22;25333;50.762;4.470;2022-09-09T00:10:48;14.60;99.90
38973;DHT22;25333;50.762;4.470;2022-09-09T00:13:29;14.60;99.90
38973;DHT22;25333;50.762;4.470;2022-09-09T00:16:27;14.70;99.90
38973;DHT22;25333;50.762;4.470;2022-09-09T00:19:14;14.70;99.90
38973;DHT22;25333;50.762;4.470;2022-09-09T00:21:53;14.60;99.90
38973;DHT22;25333;50.762;4.470;2022-09-09T00:24:43;14.60;99.90
38973;DHT22;25333;50.762;4.470;2022-09-09T00:27:16;14.70;99.90
38973;DHT22;25333;50.762;4.470;2022-09-09T00:29:45;14.60;99.90
38973;DHT22;25333;50.762;4.470;2022-09-09T00:32:17;14.60;99.90
38973;DHT22;25333;50.762;4.470;2022-09-09T00:34:57;14.60;99.90
38973;DHT22;25333;50.762;4.470;2022-09-09T00:37:25;14.60;99.90
38973;DHT22;25333;50.762;4.470;2022-09-09T00:39:54;14.60;99.90
38973;DHT22;25333;50.762;4.470;2022-09-09T00:42:25;14.70;99.90
38973;DHT22;25333;50.762;4.470;2022-09-09T00:44:59;14.70;99.90
38973;DHT22;25333;50.762;4.470;2022-09-09T00:47:40;14.70;99.90
38973;DHT22;25333;50.762;4.470;2022-09-09T00:50:12;14.70;99.90
38973;DHT22;25333;50.762;4.470;2022-09-09T00:57:52;14.70;99.90
38973;DHT22;25333;50.762;4.470;2022-09-09T01:17:01;14.70;99.90
38973;DHT22;25333;50.762;4.470;2022-09-09T01:22:52;14.70;99.90
38973;DHT22;25333;50.762;4.470;2022-09-09T01:28:01;14.80;99.90
38973;DHT22;25333;50.762;4.470;2022-09-09T01:30:29;14.80;99.90
38973;DHT22;25333;50.762;4.470;2022-09-09T01:32:57;14.80;99.90
38973;DHT22;25333;50.762;4.470;2022-09-09T01:35:44;14.80;99.90
38973;DHT22;25333;50.762;4.470;2022-09-09T01:38:10;14.90;99.90
38973;DHT22;25333;50.762;4.470;2022-09-09T01:40:36;14.90;99.90
38973;DHT22;25333;50.762;4.470;2022-09-09T01:43:02;14.90;99.90
38973;DHT22;25333;50.762;4.470;2022-09-09T01:45:28;14.90;99.90
38973;DHT22;25333;50.762;4.470;2022-09-09T01:47:54;14.90;99.90
38973;DHT22;25333;50.762;4.470;2022-09-09T01:50:20;14.90;99.90
38973;DHT22;25333;50.762;4.470;2022-09-09T01:52:50;15.00;99.90
38973;DHT22;25333;50.762;4.470;2022-09-09T01:55:21;15.00;99.90
38973;DHT22;25333;50.762;4.470;2022-09-09T02:00:33;15.00;99.90
38973;DHT22;25333;50.762;4.470;2022-09-09T02:03:26;15.00;99.90
38973;DHT22;25333;50.762;4.470;2022-09-09T02:06:02;15.00;99.90
38973;DHT22;25333;50.762;4.470;2022-09-09T02:08:46;15.00;99.90
38973;DHT22;25333;50.762;4.470;2022-09-09T02:11:20;15.00;99.90
38973;DHT22;25333;50.762;4.470;2022-09-09T02:13:48;15.00;99.90
38973;DHT22;25333;50.762;4.470;2022-09-09T02:22:07;15.00;99.90
38973;DHT22;25333;50.762;4.470;2022-09-09T02:24:35;15.00;99.90
38973;DHT22;25333;50.762;4.470;2022-09-09T02:27:04;15.00;99.90
38973;DHT22;25333;50.762;4.470;2022-09-09T02:29:34;15.00;99.90
38973;DHT22;25333;50.762;4.470;2022-09-09T02:32:08;14.90;99.90
38973;DHT22;25333;50.762;4.470;2022-09-09T02:34:37;15.00;99.90
38973;DHT22;25333;50.762;4.470;2022-09-09T02:37:07;14.90;99.90
38973;DHT22;25333;50.762;4.470;2022-09-09T02:39:33;14.90;99.90
38973;DHT22;25333;50.762;4.470;2022-09-09T02:41:59;14.90;99.90
38973;DHT22;25333;50.762;4.470;2022-09-09T02:44:25;14.90;99.90
38973;DHT22;25333;50.762;4.470;2022-09-09T02:55:45;14.90;99.90
38973;DHT22;25333;50.762;4.470;2022-09-09T02:58:14;14.90;99.90
38973;DHT22;25333;50.762;4.470;2022-09-09T03:00:44;14.90;99.90
38973;DHT22;25333;50.762;4.470;2022-09-09T03:03:11;14.90;99.90
38973;DHT22;25333;50.762;4.470;2022-09-09T03:05:37;14.90;99.90
38973;DHT22;25333;50.762;4.470;2022-09-09T03:08:05;14.80;99.90
38973;DHT22;25333;50.762;4.470;2022-09-09T03:10:31;14.80;99.90
38973;DHT22;25333;50.762;4.470;2022-09-09T03:12:57;14.80;99.90
38973;DHT22;25333;50.762;4.470;2022-09-09T03:15:22;14.80;99.90
38973;DHT22;25333;50.762;4.470;2022-09-09T03:17:48;14.80;99.90
38973;DHT22;25333;50.762;4.470;2022-09-09T03:20:14;14.80;99.90
38973;DHT22;25333;50.762;4.470;2022-09-09T03:22:40;14.80;99.90
38973;DHT22;25333;50.762;4.470;2022-09-09T03:25:06;14.80;99.90
38973;DHT22;25333;50.762;4.470;2022-09-09T03:27:32;14.80;99.90
38973;DHT22;25333;50.762;4.470;2022-09-09T03:29:58;14.80;99.90
38973;DHT22;25333;50.762;4.470;2022-09-09T03:32:24;14.80;99.90
38973;DHT22;25333;50.762;4.470;2022-09-09T03:34:53;14.80;99.90
38973;DHT22;25333;50.762;4.470;2022-09-09T03:37:19;14.80;99.90
38973;DHT22;25333;50.762;4.470;2022-09-09T03:39:45;14.80;99.90
38973;DHT22;25333;50.762;4.470;2022-09-09T03:42:15;14.80;99.90
38973;DHT22;25333;50.762;4.470;2022-09-09T03:44:44;14.80;99.90
38973;DHT22;25333;50.762;4.470;2022-09-09T03:47:18;14.70;99.90
38973;DHT22;25333;50.762;4.470;2022-09-09T03:49:45;14.70;99.90
38973;DHT22;25333;50.762;4.470;2022-09-09T03:52:11;14.70;99.90
38973;DHT22;25333;50.762;4.470;2022-09-09T03:54:37;14.70;99.90
38973;DHT22;25333;50.762;4.470;2022-09-09T03:57:03;14.70;99.90
38973;DHT22;25333;50.762;4.470;2022-09-09T03:59:29;14.70;99.90
38973;DHT22;25333;50.762;4.470;2022-09-09T04:01:55;14.70;99.90
38973;DHT22;25333;50.762;4.470;2022-09-09T04:04:22;14.70;99.90
38973;DHT22;25333;50.762;4.470;2022-09-09T04:06:48;14.70;99.90
38973;DHT22;25333;50.762;4.470;2022-09-09T04:09:14;14.70;99.90
38973;DHT22;25333;50.762;4.470;2022-09-09T04:11:40;14.70;99.90
38973;DHT22;25333;50.762;4.470;2022-09-09T04:14:06;14.70;99.90
38973;DHT22;25333;50.762;4.470;2022-09-09T04:16:32;14.80;99.90
38973;DHT22;25333;50.762;4.470;2022-09-09T04:18:58;14.80;99.90
38973;DHT22;25333;50.762;4.470;2022-09-09T04:21:25;14.80;99.90
38973;DHT22;25333;50.762;4.470;2022-09-09T04:23:51;14.80;99.90
38973;DHT22;25333;50.762;4.470;2022-09-09T04:26:17;14.80;99.90
38973;DHT22;25333;50.762;4.470;2022-09-09T04:28:43;14.80;99.90
38973;DHT22;25333;50.762;4.470;2022-09-09T04:31:17;14.90;99.90
38973;DHT22;25333;50.762;4.470;2022-09-09T04:33:43;14.90;99.90
38973;DHT22;25333;50.762;4.470;2022-09-09T04:36:09;14.80;99.90
38973;DHT22;25333;50.762;4.470;2022-09-09T04:38:35;14.80;99.90
38973;DHT22;25333;50.762;4.470;2022-09-09T04:41:01;14.80;99.90
38973;DHT22;25333;50.762;4.470;2022-09-09T04:43:26;14.80;99.90
38973;DHT22;25333;50.762;4.470;2022-09-09T04:45:52;14.80;99.90
38973;DHT22;25333;50.762;4.470;2022-09-09T04:48:19;14.70;99.90
38973;DHT22;25333;50.762;4.470;2022-09-09T04:50:54;14.70;99.90
38973;DHT22;25333;50.762;4.470;2022-09-09T04:53:19;14.70;99.90
38973;DHT22;25333;50.762;4.470;2022-09-09T04:55:45;14.70;99.90
38973;DHT22;25333;50.762;4.470;2022-09-09T04:58:11;14.70;99.90
38973;DHT22;25333;50.762;4.470;2022-09-09T05:00:37;14.70;99.90
38973;DHT22;25333;50.762;4.470;2022-09-09T05:03:06;14.70;99.90
38973;DHT22;25333;50.762;4.470;2022-09-09T05:05:34;14.70;99.90
38973;DHT22;25333;50.762;4.470;2022-09-09T05:08:05;14.70;99.90
38973;DHT22;25333;50.762;4.470;2022-09-09T05:10:31;14.70;99.90
38973;DHT22;25333;50.762;4.470;2022-09-09T05:12:57;14.70;99.90
38973;DHT22;25333;50.762;4.470;2022-09-09T05:15:23;14.80;99.90
38973;DHT22;25333;50.762;4.470;2022-09-09T05:17:48;14.80;99.90
38973;DHT22;25333;50.762;4.470;2022-09-09T05:20:14;14.80;99.90
38973;DHT22;25333;50.762;4.470;2022-09-09T05:22:39;14.80;99.90
38973;DHT22;25333;50.762;4.470;2022-09-09T05:25:06;14.80;99.90
38973;DHT22;25333;50.762;4.470;2022-09-09T05:27:34;14.80;99.90
38973;DHT22;25333;50.762;4.470;2022-09-09T05:29:59;14.90;99.90
38973;DHT22;25333;50.762;4.470;2022-09-09T05:32:25;14.90;99.90
38973;DHT22;25333;50.762;4.470;2022-09-09T05:34:51;14.90;99.90
38973;DHT22;25333;50.762;4.470;2022-09-09T05:37:18;14.90;99.90
38973;DHT22;25333;50.762;4.470;2022-09-09T05:39:43;14.90;99.90
38973;DHT22;25333;50.762;4.470;2022-09-09T05:42:13;15.00;99.90
38973;DHT22;25333;50.762;4.470;2022-09-09T05:44:38;15.00;99.90
38973;DHT22;25333;50.762;4.470;2022-09-09T05:47:04;15.00;99.90
38973;DHT22;25333;50.762;4.470;2022-09-09T05:49:30;15.00;99.90
38973;DHT22;25333;50.762;4.470;2022-09-09T05:51:55;15.00;99.90
38973;DHT22;25333;50.762;4.470;2022-09-09T05:54:21;15.00;99.90
38973;DHT22;25333;50.762;4.470;2022-09-09T05:56:47;15.00;99.90
38973;DHT22;25333;50.762;4.470;2022-09-09T05:59:15;15.00;99.90
38973;DHT22;25333;50.762;4.470;2022-09-09T06:01:41;15.00;99.90
38973;DHT22;25333;50.762;4.470;2022-09-09T06:04:07;15.00;99.90
38973;DHT22;25333;50.762;4.470;2022-09-09T06:06:35;15.00;99.90
38973;DHT22;25333;50.762;4.470;2022-09-09T06:09:03;15.00;99.90
38973;DHT22;25333;50.762;4.470;2022-09-09T06:11:32;15.00;99.90
38973;DHT22;25333;50.762;4.470;2022-09-09T06:13:59;15.00;99.90
38973;DHT22;25333;50.762;4.470;2022-09-09T06:16:27;15.00;99.90
38973;DHT22;25333;50.762;4.470;2022-09-09T06:18:54;15.00;99.90
38973;DHT22;25333;50.762;4.470;2022-09-09T06:21:25;15.10;99.90
38973;DHT22;25333;50.762;4.470;2022-09-09T06:23:51;15.10;99.90
38973;DHT22;25333;50.762;4.470;2022-09-09T06:28:48;15.10;99.90
38973;DHT22;25333;50.762;4.470;2022-09-09T06:31:16;15.10;99.90
38973;DHT22;25333;50.762;4.470;2022-09-09T06:33:53;15.20;99.90
38973;DHT22;25333;50.762;4.470;2022-09-09T06:36:30;15.20;99.90
38973;DHT22;25333;50.762;4.470;2022-09-09T06:38:56;15.20;99.90
38973;DHT22;25333;50.762;4.470;2022-09-09T06:41:24;15.20;99.90
38973;DHT22;25333;50.762;4.470;2022-09-09T06:43:50;15.20;99.90
38973;DHT22;25333;50.762;4.470;2022-09-09T06:46:24;15.20;99.90
38973;DHT22;25333;50.762;4.470;2022-09-09T06:48:54;15.20;99.90
38973;DHT22;25333;50.762;4.470;2022-09-09T06:51:32;15.30;99.90
38973;DHT22;25333;50.762;4.470;2022-09-09T06:54:00;15.20;99.90
38973;DHT22;25333;50.762;4.470;2022-09-09T06:58:54;15.20;99.90
38973;DHT22;25333;50.762;4.470;2022-09-09T07:01:25;15.30;99.90
38973;DHT22;25333;50.762;4.470;2022-09-09T07:03:53;15.30;99.90
38973;DHT22;25333;50.762;4.470;2022-09-09T07:06:28;15.30;99.90
38973;DHT22;25333;50.762;4.470;2022-09-09T07:08:56;15.30;99.90
38973;DHT22;25333;50.762;4.470;2022-09-09T07:11:26;15.40;99.90
38973;DHT22;25333;50.762;4.470;2022-09-09T07:13:53;15.40;99.90
38973;DHT22;25333;50.762;4.470;2022-09-09T07:16:20;15.50;99.90
38973;DHT22;25333;50.762;4.470;2022-09-09T07:18:46;15.50;99.90
38973;DHT22;25333;50.762;4.470;2022-09-09T07:21:29;15.50;99.90
38973;DHT22;25333;50.762;4.470;2022-09-09T07:24:01;15.50;99.90
38973;DHT22;25333;50.762;4.470;2022-09-09T07:26:29;15.50;99.90
38973;DHT22;25333;50.762;4.470;2022-09-09T07:29:07;15.40;99.90
38973;DHT22;25333;50.762;4.470;2022-09-09T07:31:49;15.40;99.90
38973;DHT22;25333;50.762;4.470;2022-09-09T07:34:18;15.40;99.90
38973;DHT22;25333;50.762;4.470;2022-09-09T07:37:16;15.40;99.90
38973;DHT22;25333;50.762;4.470;2022-09-09T07:39:49;15.40;99.90
38973;DHT22;25333;50.762;4.470;2022-09-09T07:42:39;15.40;99.90
38973;DHT22;25333;50.762;4.470;2022-09-09T07:45:16;15.40;99.90
38973;DHT22;25333;50.762;4.470;2022-09-09T07:47:42;15.40;99.90
38973;DHT22;25333;50.762;4.470;2022-09-09T07:50:16;15.40;99.90
38973;DHT22;25333;50.762;4.470;2022-09-09T07:52:45;15.40;99.90
38973;DHT22;25333;50.762;4.470;2022-09-09T07:55:14;15.40;99.90
38973;DHT22;25333;50.762;4.470;2022-09-09T07:57:40;15.40;99.90
38973;DHT22;25333;50.762;4.470;2022-09-09T08:00:29;15.40;99.90
38973;DHT22;25333;50.762;4.470;2022-09-09T08:03:08;15.40;99.90
38973;DHT22;25333;50.762;4.470;2022-09-09T08:05:40;15.50;99.90
38973;DHT22;25333;50.762;4.470;2022-09-09T08:08:06;15.50;99.90
38973;DHT22;25333;50.762;4.470;2022-09-09T08:10:32;15.60;99.90
38973;DHT22;25333;50.762;4.470;2022-09-09T08:13:36;15.60;99.90
38973;DHT22;25333;50.762;4.470;2022-09-09T08:16:45;15.70;99.90
38973;DHT22;25333;50.762;4.470;2022-09-09T08:19:48;15.70;99.90
38973;DHT22;25333;50.762;4.470;2022-09-09T08:22:28;15.80;99.90
38973;DHT22;25333;50.762;4.470;2022-09-09T08:25:12;15.80;99.90
38973;DHT22;25333;50.762;4.470;2022-09-09T08:27:38;15.80;99.90
38973;DHT22;25333;50.762;4.470;2022-09-09T08:30:04;15.80;99.90
38973;DHT22;25333;50.762;4.470;2022-09-09T08:32:29;15.80;99.90
38973;DHT22;25333;50.762;4.470;2022-09-09T08:34:55;15.80;99.90
38973;DHT22;25333;50.762;4.470;2022-09-09T08:37:21;15.80;99.90
38973;DHT22;25333;50.762;4.470;2022-09-09T08:39:46;15.80;99.90
38973;DHT22;25333;50.762;4.470;2022-09-09T08:42:41;15.80;99.90
38973;DHT22;25333;50.762;4.470;2022-09-09T08:50:34;15.70;99.90
38973;DHT22;25333;50.762;4.470;2022-09-09T08:53:29;15.70;99.90
38973;DHT22;25333;50.762;4.470;2022-09-09T08:56:04;15.70;99.90
38973;DHT22;25333;50.762;4.470;2022-09-09T08:58:35;15.60;99.90
38973;DHT22;25333;50.762;4.470;2022-09-09T09:04:05;15.60;99.90
38973;DHT22;25333;50.762;4.470;2022-09-09T09:09:24;15.60;99.90
38973;DHT22;25333;50.762;4.470;2022-09-09T09:11:57;15.60;99.90
38973;DHT22;25333;50.762;4.470;2022-09-09T09:14:33;15.60;99.90
38973;DHT22;25333;50.762;4.470;2022-09-09T09:17:20;15.70;99.90
38973;DHT22;25333;50.762;4.470;2022-09-09T09:19:49;15.60;99.90
38973;DHT22;25333;50.762;4.470;2022-09-09T09:22:20;15.60;99.90
38973;DHT22;25333;50.762;4.470;2022-09-09T09:24:58;15.60;99.90
38973;DHT22;25333;50.762;4.470;2022-09-09T09:27:32;15.60;99.90
38973;DHT22;25333;50.762;4.470;2022-09-09T09:30:02;15.50;99.90
38973;DHT22;25333;50.762;4.470;2022-09-09T09:32:32;15.50;99.90
38973;DHT22;25333;50.762;4.470;2022-09-09T09:34:59;15.60;99.90
38973;DHT22;25333;50.762;4.470;2022-09-09T09:37:33;15.60;99.90
38973;DHT22;25333;50.762;4.470;2022-09-09T09:42:35;15.60;99.90
38973;DHT22;25333;50.762;4.470;2022-09-09T09:45:31;15.60;99.90
38973;DHT22;25333;50.762;4.470;2022-09-09T09:48:03;15.60;99.90
38973;DHT22;25333;50.762;4.470;2022-09-09T09:50:29;15.60;99.90
38973;DHT22;25333;50.762;4.470;2022-09-09T09:52:57;15.70;99.90
38973;DHT22;25333;50.762;4.470;2022-09-09T09:55:24;15.60;99.90
38973;DHT22;25333;50.762;4.470;2022-09-09T09:57:51;15.60;99.90
38973;DHT22;25333;50.762;4.470;2022-09-09T10:00:22;15.60;99.90
38973;DHT22;25333;50.762;4.470;2022-09-09T10:02:49;15.60;99.90
38973;DHT22;25333;50.762;4.470;2022-09-09T10:05:21;15.60;99.90
38973;DHT22;25333;50.762;4.470;2022-09-09T10:08:08;15.70;99.90
38973;DHT22;25333;50.762;4.470;2022-09-09T10:10:43;15.70;99.90
38973;DHT22;25333;50.762;4.470;2022-09-09T10:13:20;15.70;99.90
38973;DHT22;25333;50.762;4.470;2022-09-09T10:19:03;15.60;99.90
38973;DHT22;25333;50.762;4.470;2022-09-09T10:21:32;15.60;99.90
38973;DHT22;25333;50.762;4.470;2022-09-09T10:27:12;15.70;99.90
38973;DHT22;25333;50.762;4.470;2022-09-09T10:30:01;15.70;99.90
38973;DHT22;25333;50.762;4.470;2022-09-09T10:41:22;15.80;99.90
38973;DHT22;25333;50.762;4.470;2022-09-09T10:59:58;16.10;99.90
38973;DHT22;25333;50.762;4.470;2022-09-09T11:02:31;16.20;99.90
38973;DHT22;25333;50.762;4.470;2022-09-09T11:08:38;16.20;99.90
38973;DHT22;25333;50.762;4.470;2022-09-09T11:11:38;16.20;99.90
38973;DHT22;25333;50.762;4.470;2022-09-09T11:14:39;16.20;99.90
38973;DHT22;25333;50.762;4.470;2022-09-09T11:20:58;16.30;99.90
38973;DHT22;25333;50.762;4.470;2022-09-09T11:23:42;16.30;99.90
38973;DHT22;25333;50.762;4.470;2022-09-09T11:26:33;16.40;99.90
38973;DHT22;25333;50.762;4.470;2022-09-09T11:29:54;16.40;99.90
38973;DHT22;25333;50.762;4.470;2022-09-09T11:39:00;16.60;99.90
38973;DHT22;25333;50.762;4.470;2022-09-09T11:41:35;16.70;99.90
38973;DHT22;25333;50.762;4.470;2022-09-09T11:44:16;16.70;99.90
38973;DHT22;25333;50.762;4.470;2022-09-09T11:46:43;16.70;99.90
38973;DHT22;25333;50.762;4.470;2022-09-09T11:49:30;16.80;99.90
38973;DHT22;25333;50.762;4.470;2022-09-09T11:52:20;16.90;99.90
38973;DHT22;25333;50.762;4.470;2022-09-09T11:54:49;16.90;99.90
38973;DHT22;25333;50.762;4.470;2022-09-09T11:57:35;16.90;99.90
38973;DHT22;25333;50.762;4.470;2022-09-09T12:00:04;17.00;99.90
38973;DHT22;25333;50.762;4.470;2022-09-09T12:02:30;16.90;99.90
38973;DHT22;25333;50.762;4.470;2022-09-09T12:05:10;16.90;99.90
38973;DHT22;25333;50.762;4.470;2022-09-09T12:07:53;16.90;99.90
38973;DHT22;25333;50.762;4.470;2022-09-09T12:10:30;16.90;99.90
38973;DHT22;25333;50.762;4.470;2022-09-09T12:13:22;16.90;99.90
38973;DHT22;25333;50.762;4.470;2022-09-09T12:15:52;17.00;99.90
38973;DHT22;25333;50.762;4.470;2022-09-09T12:18:33;17.00;99.90
38973;DHT22;25333;50.762;4.470;2022-09-09T12:26:15;17.20;99.90
38973;DHT22;25333;50.762;4.470;2022-09-09T12:28:49;17.20;99.90
38973;DHT22;25333;50.762;4.470;2022-09-09T12:40:05;17.30;99.90
38973;DHT22;25333;50.762;4.470;2022-09-09T12:42:32;17.30;99.90
38973;DHT22;25333;50.762;4.470;2022-09-09T12:45:00;17.30;99.90
38973;DHT22;25333;50.762;4.470;2022-09-09T12:47:42;17.40;99.90
38973;DHT22;25333;50.762;4.470;2022-09-09T12:50:24;17.40;99.90
38973;DHT22;25333;50.762;4.470;2022-09-09T12:52:56;17.40;99.90
38973;DHT22;25333;50.762;4.470;2022-09-09T12:55:36;17.50;99.90
38973;DHT22;25333;50.762;4.470;2022-09-09T12:58:03;17.50;99.90
38973;DHT22;25333;50.762;4.470;2022-09-09T13:00:31;17.50;99.90
38973;DHT22;25333;50.762;4.470;2022-09-09T13:03:02;17.60;99.90
38973;DHT22;25333;50.762;4.470;2022-09-09T13:05:34;17.60;99.90
38973;DHT22;25333;50.762;4.470;2022-09-09T13:08:05;17.50;99.90
38973;DHT22;25333;50.762;4.470;2022-09-09T13:10:35;17.50;99.90
38973;DHT22;25333;50.762;4.470;2022-09-09T13:13:05;17.50;99.90
38973;DHT22;25333;50.762;4.470;2022-09-09T13:15:38;17.50;99.90
38973;DHT22;25333;50.762;4.470;2022-09-09T13:18:07;17.60;99.90
38973;DHT22;25333;50.762;4.470;2022-09-09T13:20:36;17.60;99.90
38973;DHT22;25333;50.762;4.470;2022-09-09T13:23:02;17.70;99.90
38973;DHT22;25333;50.762;4.470;2022-09-09T13:25:28;17.70;99.90
38973;DHT22;25333;50.762;4.470;2022-09-09T13:27:58;17.70;99.90
38973;DHT22;25333;50.762;4.470;2022-09-09T13:30:35;17.80;99.90
38973;DHT22;25333;50.762;4.470;2022-09-09T13:38:18;17.90;99.90
38973;DHT22;25333;50.762;4.470;2022-09-09T13:41:08;18.00;99.90
38973;DHT22;25333;50.762;4.470;2022-09-09T13:43:37;18.00;99.90
38973;DHT22;25333;50.762;4.470;2022-09-09T13:46:35;18.10;99.90
38973;DHT22;25333;50.762;4.470;2022-09-09T13:49:22;18.20;99.90
38973;DHT22;25333;50.762;4.470;2022-09-09T13:51:50;18.30;99.90
38973;DHT22;25333;50.762;4.470;2022-09-09T13:54:18;18.30;99.90
38973;DHT22;25333;50.762;4.470;2022-09-09T13:56:44;18.30;99.90
38973;DHT22;25333;50.762;4.470;2022-09-09T13:59:19;18.40;99.90
38973;DHT22;25333;50.762;4.470;2022-09-09T14:01:53;18.50;99.90
38973;DHT22;25333;50.762;4.470;2022-09-09T14:04:21;18.50;99.90
38973;DHT22;25333;50.762;4.470;2022-09-09T14:06:51;18.40;99.90
38973;DHT22;25333;50.762;4.470;2022-09-09T14:09:25;18.40;99.90
38973;DHT22;25333;50.762;4.470;2022-09-09T14:11:50;18.40;99.90
38973;DHT22;25333;50.762;4.470;2022-09-09T14:14:16;18.40;99.90
38973;DHT22;25333;50.762;4.470;2022-09-09T14:16:42;18.50;99.90
38973;DHT22;25333;50.762;4.470;2022-09-09T14:19:08;18.60;99.90
38973;DHT22;25333;50.762;4.470;2022-09-09T14:21:35;18.60;99.90
38973;DHT22;25333;50.762;4.470;2022-09-09T14:24:00;18.80;99.90
38973;DHT22;25333;50.762;4.470;2022-09-09T14:26:26;18.70;99.90
38973;DHT22;25333;50.762;4.470;2022-09-09T14:29:06;18.70;99.90
38973;DHT22;25333;50.762;4.470;2022-09-09T14:31:31;18.60;99.90
38973;DHT22;25333;50.762;4.470;2022-09-09T14:33:59;18.70;99.90
38973;DHT22;25333;50.762;4.470;2022-09-09T14:36:25;18.70;99.90
38973;DHT22;25333;50.762;4.470;2022-09-09T14:38:51;18.70;99.90
38973;DHT22;25333;50.762;4.470;2022-09-09T14:41:20;18.60;99.90
38973;DHT22;25333;50.762;4.470;2022-09-09T14:43:48;18.70;99.90
38973;DHT22;25333;50.762;4.470;2022-09-09T14:46:15;18.60;99.90
38973;DHT22;25333;50.762;4.470;2022-09-09T14:48:41;18.50;99.90
38973;DHT22;25333;50.762;4.470;2022-09-09T14:51:17;18.50;99.90
38973;DHT22;25333;50.762;4.470;2022-09-09T14:53:45;18.50;99.90
38973;DHT22;25333;50.762;4.470;2022-09-09T14:56:23;18.50;99.90
38973;DHT22;25333;50.762;4.470;2022-09-09T14:58:57;18.60;99.90
38973;DHT22;25333;50.762;4.470;2022-09-09T15:01:24;18.60;99.90
38973;DHT22;25333;50.762;4.470;2022-09-09T15:03:57;18.70;99.90
38973;DHT22;25333;50.762;4.470;2022-09-09T15:06:31;18.70;99.90
38973;DHT22;25333;50.762;4.470;2022-09-09T15:09:05;18.70;99.90
38973;DHT22;25333;50.762;4.470;2022-09-09T15:11:34;18.60;99.90
38973;DHT22;25333;50.762;4.470;2022-09-09T15:14:03;18.50;99.90
38973;DHT22;25333;50.762;4.470;2022-09-09T15:16:30;18.40;99.90
38973;DHT22;25333;50.762;4.470;2022-09-09T15:18:58;18.50;99.90
38973;DHT22;25333;50.762;4.470;2022-09-09T15:21:44;18.60;99.90
38973;DHT22;25333;50.762;4.470;2022-09-09T15:24:13;18.60;99.90
38973;DHT22;25333;50.762;4.470;2022-09-09T15:26:39;18.60;99.90
38973;DHT22;25333;50.762;4.470;2022-09-09T15:29:20;18.60;99.90
38973;DHT22;25333;50.762;4.470;2022-09-09T15:31:45;18.60;99.90
38973;DHT22;25333;50.762;4.470;2022-09-09T15:34:12;18.60;99.90
38973;DHT22;25333;50.762;4.470;2022-09-09T15:37:01;18.60;99.90
38973;DHT22;25333;50.762;4.470;2022-09-09T15:39:27;18.50;99.90
38973;DHT22;25333;50.762;4.470;2022-09-09T15:41:53;18.50;99.90
38973;DHT22;25333;50.762;4.470;2022-09-09T15:44:18;18.50;99.90
38973;DHT22;25333;50.762;4.470;2022-09-09T15:46:48;18.40;99.90
38973;DHT22;25333;50.762;4.470;2022-09-09T15:49:19;18.40;99.90
38973;DHT22;25333;50.762;4.470;2022-09-09T15:51:56;18.30;99.90
38973;DHT22;25333;50.762;4.470;2022-09-09T15:54:23;18.20;99.90
38973;DHT22;25333;50.762;4.470;2022-09-09T15:56:52;18.20;99.90
38973;DHT22;25333;50.762;4.470;2022-09-09T15:59:18;18.10;99.90
38973;DHT22;25333;50.762;4.470;2022-09-09T16:01:44;18.10;99.90
38973;DHT22;25333;50.762;4.470;2022-09-09T16:04:10;18.20;99.90
38973;DHT22;25333;50.762;4.470;2022-09-09T16:06:36;18.20;99.90
38973;DHT22;25333;50.762;4.470;2022-09-09T16:09:04;18.20;99.90
38973;DHT22;25333;50.762;4.470;2022-09-09T16:11:32;18.30;99.90
38973;DHT22;25333;50.762;4.470;2022-09-09T16:13:58;18.40;99.90
38973;DHT22;25333;50.762;4.470;2022-09-09T16:16:27;18.40;99.90
38973;DHT22;25333;50.762;4.470;2022-09-09T16:18:55;18.40;99.90
38973;DHT22;25333;50.762;4.470;2022-09-09T16:21:29;18.50;99.90
38973;DHT22;25333;50.762;4.470;2022-09-09T16:23:58;18.40;99.90
38973;DHT22;25333;50.762;4.470;2022-09-09T16:26:33;18.40;99.90
38973;DHT22;25333;50.762;4.470;2022-09-09T16:28:59;18.40;99.90
38973;DHT22;25333;50.762;4.470;2022-09-09T16:31:27;18.40;99.90
38973;DHT22;25333;50.762;4.470;2022-09-09T16:33:54;18.40;99.90
38973;DHT22;25333;50.762;4.470;2022-09-09T16:36:22;18.40;99.90
38973;DHT22;25333;50.762;4.470;2022-09-09T16:38:51;18.30;99.90
38973;DHT22;25333;50.762;4.470;2022-09-09T16:41:17;18.30;99.90
38973;DHT22;25333;50.762;4.470;2022-09-09T16:43:43;18.30;99.90
38973;DHT22;25333;50.762;4.470;2022-09-09T16:46:18;18.10;99.90
38973;DHT22;25333;50.762;4.470;2022-09-09T16:48:46;17.90;99.90
38973;DHT22;25333;50.762;4.470;2022-09-09T16:51:21;17.80;99.90
38973;DHT22;25333;50.762;4.470;2022-09-09T16:53:49;17.60;99.90
38973;DHT22;25333;50.762;4.470;2022-09-09T16:56:17;17.50;99.90
38973;DHT22;25333;50.762;4.470;2022-09-09T16:58:49;17.50;99.90
38973;DHT22;25333;50.762;4.470;2022-09-09T17:01:15;17.30;99.90
38973;DHT22;25333;50.762;4.470;2022-09-09T17:03:41;17.40;99.90
38973;DHT22;25333;50.762;4.470;2022-09-09T17:06:10;17.40;99.90
38973;DHT22;25333;50.762;4.470;2022-09-09T17:08:37;17.50;99.90
38973;DHT22;25333;50.762;4.470;2022-09-09T17:11:02;17.50;99.90
38973;DHT22;25333;50.762;4.470;2022-09-09T17:13:28;17.60;99.90
38973;DHT22;25333;50.762;4.470;2022-09-09T17:15:54;17.60;99.90
38973;DHT22;25333;50.762;4.470;2022-09-09T17:18:19;17.60;99.90
38973;DHT22;25333;50.762;4.470;2022-09-09T17:20:46;17.60;99.90
38973;DHT22;25333;50.762;4.470;2022-09-09T17:23:12;17.50;99.90
38973;DHT22;25333;50.762;4.470;2022-09-09T17:25:41;17.50;99.90
38973;DHT22;25333;50.762;4.470;2022-09-09T17:28:06;17.50;99.90
38973;DHT22;25333;50.762;4.470;2022-09-09T17:30:36;17.50;99.90
38973;DHT22;25333;50.762;4.470;2022-09-09T17:33:03;17.40;99.90
38973;DHT22;25333;50.762;4.470;2022-09-09T17:35:29;17.40;99.90
38973;DHT22;25333;50.762;4.470;2022-09-09T17:37:55;17.40;99.90
38973;DHT22;25333;50.762;4.470;2022-09-09T17:40:22;17.40;99.90
38973;DHT22;25333;50.762;4.470;2022-09-09T17:42:47;17.40;99.90
38973;DHT22;25333;50.762;4.470;2022-09-09T17:45:14;17.30;99.90
38973;DHT22;25333;50.762;4.470;2022-09-09T17:47:40;17.20;99.90
38973;DHT22;25333;50.762;4.470;2022-09-09T17:50:08;17.20;99.90
38973;DHT22;25333;50.762;4.470;2022-09-09T17:52:35;17.20;99.90
38973;DHT22;25333;50.762;4.470;2022-09-09T17:55:01;17.10;99.90
38973;DHT22;25333;50.762;4.470;2022-09-09T17:57:26;17.10;99.90
38973;DHT22;25333;50.762;4.470;2022-09-09T17:59:53;17.10;99.90
38973;DHT22;25333;50.762;4.470;2022-09-09T18:02:18;17.10;99.90
38973;DHT22;25333;50.762;4.470;2022-09-09T18:04:44;17.00;99.90